createdAt,value
2022-12-03T00:01:36.270Z,1.62
2022-12-03T00:04:25.576Z,1.63
2022-12-03T00:07:22.746Z,1.64
2022-12-03T00:10:10.253Z,1.62
2022-12-03T00:13:26.838Z,1.65
2022-12-03T00:16:26.254Z,1.68
2022-12-03T00:19:17.244Z,1.68
2022-12-03T00:21:57.947Z,1.69
2022-12-03T00:24:42.378Z,1.68
2022-12-03T00:27:34.136Z,1.68
2022-12-03T00:30:14.314Z,1.68
2022-12-03T00:33:02.246Z,1.66
2022-12-03T00:35:41.597Z,1.69
2022-12-03T00:38:26.657Z,1.70
2022-12-03T00:41:16.791Z,1.69
2022-12-03T00:44:17.898Z,1.69
2022-12-03T00:47:14.047Z,1.70
2022-12-03T00:50:12.799Z,1.72
2022-12-03T00:52:55.622Z,1.71
2022-12-03T00:55:38.900Z,1.72
2022-12-03T00:58:29.937Z,1.73
2022-12-03T01:01:22.701Z,1.74
2022-12-03T01:04:19.305Z,1.76
2022-12-03T01:07:12.444Z,1.77
2022-12-03T01:09:57.690Z,1.76
2022-12-03T01:12:50.781Z,1.77
2022-12-03T01:15:38.110Z,1.75
2022-12-03T01:18:22.234Z,1.76
2022-12-03T01:21:15.172Z,1.75
2022-12-03T01:23:56.520Z,1.76
2022-12-03T01:26:34.230Z,1.75
2022-12-03T01:29:16.014Z,1.76
2022-12-03T01:32:14.941Z,1.75
2022-12-03T01:34:54.275Z,1.76
2022-12-03T01:37:36.592Z,1.76
2022-12-03T01:40:28.033Z,1.76
2022-12-03T01:43:07.876Z,1.75
2022-12-03T01:45:45.793Z,1.76
2022-12-03T01:48:20.433Z,1.76
2022-12-03T01:50:52.833Z,1.75
2022-12-03T01:53:45.693Z,1.77
2022-12-03T01:56:22.367Z,1.77
2022-12-03T01:58:58.305Z,1.78
2022-12-03T02:01:36.341Z,1.79
2022-12-03T02:04:09.574Z,1.77
2022-12-03T02:06:53.834Z,1.77
2022-12-03T02:09:54.385Z,1.78
2022-12-03T02:12:39.630Z,1.78
2022-12-03T02:15:24.244Z,1.78
2022-12-03T02:18:04.837Z,1.78
2022-12-03T02:20:59.417Z,1.79
2022-12-03T02:23:56.370Z,1.75
2022-12-03T02:26:36.291Z,1.78
2022-12-03T02:29:20.460Z,1.73
2022-12-03T02:32:13.109Z,1.76
2022-12-03T02:35:04.481Z,1.74
2022-12-03T02:37:44.626Z,1.72
2022-12-03T02:40:30.664Z,1.71
2022-12-03T02:43:11.749Z,1.70
2022-12-03T02:45:50.070Z,1.68
2022-12-03T02:48:42.914Z,1.66
2022-12-03T02:51:25.970Z,1.62
2022-12-03T02:54:01.340Z,1.59
2022-12-03T02:56:40.281Z,1.54
2022-12-03T02:59:11.649Z,1.50
2022-12-03T03:01:44.928Z,1.48
2022-12-03T03:04:20.310Z,1.46
2022-12-03T03:06:57.411Z,1.43
2022-12-03T03:09:37.375Z,1.40
2022-12-03T03:12:23.345Z,1.38
2022-12-03T03:15:06.982Z,1.34
2022-12-03T03:17:38.567Z,1.33
2022-12-03T03:20:13.670Z,1.32
2022-12-03T03:22:54.185Z,1.27
2022-12-03T03:25:29.455Z,1.28
2022-12-03T03:28:07.364Z,1.26
2022-12-03T03:30:42.479Z,1.24
2022-12-03T03:33:17.067Z,1.22
2022-12-03T03:35:49.709Z,1.21
2022-12-03T03:38:24.895Z,1.21
2022-12-03T03:40:56.816Z,1.20
2022-12-03T03:43:27.882Z,1.20
2022-12-03T03:45:59.115Z,1.22
2022-12-03T03:48:28.511Z,1.24
2022-12-03T03:50:59.813Z,1.25
2022-12-03T03:53:31.498Z,1.26
2022-12-03T03:56:02.558Z,1.28
2022-12-03T03:58:34.096Z,1.29
2022-12-03T04:01:06.655Z,1.31
2022-12-03T04:03:38.023Z,1.34
2022-12-03T04:06:07.486Z,1.36
2022-12-03T04:08:38.571Z,1.38
2022-12-03T04:11:28.217Z,1.38
2022-12-03T04:13:58.990Z,1.39
2022-12-03T04:16:30.167Z,1.40
2022-12-03T04:19:01.568Z,1.42
2022-12-03T04:21:50.083Z,1.42
2022-12-03T04:24:22.492Z,1.43
2022-12-03T04:27:10.690Z,1.43
2022-12-03T04:29:42.370Z,1.45
2022-12-03T04:32:31.256Z,1.46
2022-12-03T04:35:19.361Z,1.46
2022-12-03T04:37:50.186Z,1.47
2022-12-03T04:40:34.511Z,1.48
2022-12-03T04:43:05.116Z,1.48
2022-12-03T04:45:37.591Z,1.48
2022-12-03T04:48:08.880Z,1.47
2022-12-03T04:50:39.488Z,1.46
2022-12-03T04:53:10.020Z,1.46
2022-12-03T04:55:40.528Z,1.46
2022-12-03T04:58:13.463Z,1.44
2022-12-03T05:00:49.792Z,1.45
2022-12-03T05:03:28.491Z,1.45
2022-12-03T05:06:01.743Z,1.45
2022-12-03T05:08:34.136Z,1.44
2022-12-03T05:11:05.126Z,1.44
2022-12-03T05:13:35.925Z,1.45
2022-12-03T05:16:07.514Z,1.44
2022-12-03T05:18:40.057Z,1.43
2022-12-03T05:21:11.302Z,1.42
2022-12-03T05:23:42.653Z,1.43
2022-12-03T05:26:14.527Z,1.43
2022-12-03T05:28:45.771Z,1.42
2022-12-03T05:31:26.429Z,1.42
2022-12-03T05:34:00.353Z,1.41
2022-12-03T05:36:52.788Z,1.41
2022-12-03T05:39:32.345Z,1.40
2022-12-03T05:42:20.897Z,1.38
2022-12-03T05:44:54.660Z,1.37
2022-12-03T05:47:29.190Z,1.36
2022-12-03T05:50:01.466Z,1.35
2022-12-03T05:52:34.366Z,1.33
2022-12-03T05:55:09.306Z,1.28
2022-12-03T05:57:41.683Z,1.29
2022-12-03T06:00:18.559Z,1.26
2022-12-03T06:02:49.614Z,1.24
2022-12-03T06:05:21.459Z,1.20
2022-12-03T06:07:53.931Z,1.16
2022-12-03T06:10:26.236Z,1.12
2022-12-03T06:12:57.132Z,1.08
2022-12-03T06:15:28.366Z,1.02
2022-12-03T06:17:57.426Z,0.97
2022-12-03T06:20:27.920Z,0.92
2022-12-03T06:22:58.425Z,0.87
2022-12-03T06:25:28.925Z,0.82
2022-12-03T06:27:59.406Z,0.77
2022-12-03T06:30:29.874Z,0.72
2022-12-03T06:33:01.627Z,0.65
2022-12-03T06:35:32.052Z,0.58
2022-12-03T06:38:02.546Z,0.54
2022-12-03T06:40:33.055Z,0.47
2022-12-03T06:43:03.544Z,0.42
2022-12-03T06:45:34.556Z,0.35
2022-12-03T06:48:05.192Z,0.29
2022-12-03T06:50:35.979Z,0.22
2022-12-03T06:53:06.488Z,0.16
2022-12-03T06:55:37.052Z,0.09
2022-12-03T06:58:07.747Z,0.03
2022-12-03T07:00:38.349Z,-0.04
2022-12-03T07:03:09.071Z,-0.08
2022-12-03T07:05:39.869Z,-0.13
2022-12-03T07:08:10.847Z,-0.17
2022-12-03T07:14:35.778Z,-0.26
2022-12-03T07:17:05.058Z,-0.31
2022-12-03T07:19:36.307Z,-0.26
2022-12-03T07:22:07.913Z,-0.26
2022-12-03T07:24:39.371Z,-0.24
2022-12-03T07:27:10.482Z,-0.21
2022-12-03T07:29:41.134Z,-0.19
2022-12-03T07:32:11.657Z,-0.15
2022-12-03T07:34:42.174Z,-0.10
2022-12-03T07:37:12.972Z,-0.06
2022-12-03T07:39:42.622Z,-0.02
2022-12-03T07:42:12.965Z,0.01
2022-12-03T07:44:43.395Z,0.01
2022-12-03T07:47:13.880Z,0.02
2022-12-03T07:49:44.446Z,0.03
2022-12-03T07:52:14.813Z,0.04
2022-12-03T07:54:45.621Z,0.05
2022-12-03T07:57:16.005Z,0.10
2022-12-03T07:59:46.424Z,0.15
2022-12-03T08:02:21.237Z,0.22
2022-12-03T08:04:52.842Z,0.31
2022-12-03T08:07:24.134Z,0.39
2022-12-03T08:09:54.696Z,0.47
2022-12-03T08:12:40.115Z,0.56
2022-12-03T08:15:16.264Z,0.65
2022-12-03T08:17:48.848Z,0.74
2022-12-03T08:20:21.831Z,0.85
2022-12-03T08:22:54.388Z,0.95
2022-12-03T08:25:26.611Z,1.03
2022-12-03T08:28:03.724Z,1.09
2022-12-03T08:30:34.117Z,1.14
2022-12-03T08:33:07.617Z,1.17
2022-12-03T08:35:37.995Z,1.23
2022-12-03T08:38:14.108Z,1.30
2022-12-03T08:40:47.481Z,1.40
2022-12-03T08:43:22.322Z,1.49
2022-12-03T08:45:54.153Z,1.61
2022-12-03T08:48:36.795Z,1.72
2022-12-03T08:51:16.855Z,1.84
2022-12-03T08:53:49.699Z,1.98
2022-12-03T08:56:25.570Z,2.10
2022-12-03T08:58:59.352Z,2.20
2022-12-03T09:01:42.591Z,2.29
2022-12-03T09:04:38.252Z,2.39
2022-12-03T09:07:08.629Z,2.50
2022-12-03T09:09:39.743Z,2.59
2022-12-03T09:12:10.339Z,2.67
2022-12-03T09:14:40.835Z,2.72
2022-12-03T09:17:11.354Z,2.78
2022-12-03T09:19:46.046Z,2.82
2022-12-03T09:22:17.405Z,2.89
2022-12-03T09:24:47.814Z,2.94
2022-12-03T09:27:18.245Z,2.94
2022-12-03T09:29:48.855Z,2.94
2022-12-03T09:32:19.421Z,2.93
2022-12-03T09:34:49.868Z,2.91
2022-12-03T09:37:21.484Z,2.92
2022-12-03T09:39:51.888Z,2.92
2022-12-03T09:42:22.507Z,2.95
2022-12-03T09:44:53.734Z,2.97
2022-12-03T09:47:22.900Z,3.00
2022-12-03T09:49:54.605Z,3.04
2022-12-03T09:52:30.068Z,3.07
2022-12-03T09:55:01.454Z,3.12
2022-12-03T09:57:30.230Z,3.19
2022-12-03T10:00:01.286Z,3.26
2022-12-03T10:02:34.240Z,3.33
2022-12-03T10:05:04.746Z,3.40
2022-12-03T10:07:35.495Z,3.43
2022-12-03T10:10:08.765Z,3.45
2022-12-03T10:12:39.244Z,3.49
2022-12-03T10:15:14.477Z,3.50
2022-12-03T10:17:46.752Z,3.52
2022-12-03T10:20:20.092Z,3.56
2022-12-03T10:22:50.832Z,3.60
2022-12-03T10:25:23.734Z,3.65
2022-12-03T10:28:02.056Z,3.70
2022-12-03T10:30:32.898Z,3.75
2022-12-03T10:33:18.906Z,3.79
2022-12-03T10:35:50.004Z,3.84
2022-12-03T10:38:23.683Z,3.88
2022-12-03T10:40:54.508Z,3.92
2022-12-03T10:43:26.544Z,3.95
2022-12-03T10:46:18.164Z,4.00
2022-12-03T10:49:08.494Z,4.04
2022-12-03T10:51:40.361Z,4.07
2022-12-03T10:54:19.090Z,4.08
2022-12-03T10:56:51.639Z,4.08
2022-12-03T10:59:24.529Z,4.08
2022-12-03T11:01:55.175Z,4.08
2022-12-03T11:04:30.276Z,4.08
2022-12-03T11:07:02.928Z,4.09
2022-12-03T11:09:34.627Z,4.08
2022-12-03T11:12:09.102Z,4.05
2022-12-03T11:15:07.796Z,4.02
2022-12-03T11:17:52.536Z,4.05
2022-12-03T11:20:56.849Z,4.05
2022-12-03T11:23:58.170Z,4.02
2022-12-03T11:27:03.624Z,4.03
2022-12-03T11:29:58.731Z,4.03
2022-12-03T11:33:07.336Z,4.02
2022-12-03T11:36:15.287Z,4.01
2022-12-03T11:38:58.677Z,4.00
2022-12-03T11:41:35.098Z,3.99
2022-12-03T11:44:20.855Z,3.97
2022-12-03T11:46:51.570Z,3.95
2022-12-03T11:49:34.346Z,3.93
2022-12-03T11:52:20.151Z,3.93
2022-12-03T11:54:54.387Z,3.93
2022-12-03T11:57:38.002Z,3.94
2022-12-03T12:00:20.499Z,3.98
2022-12-03T12:02:51.964Z,3.98
2022-12-03T12:05:23.562Z,3.99
2022-12-03T12:07:52.984Z,3.98
2022-12-03T12:10:42.637Z,3.96
2022-12-03T12:13:57.121Z,3.95
2022-12-03T12:16:43.090Z,3.96
2022-12-03T12:19:43.449Z,3.95
2022-12-03T12:22:20.695Z,3.95
2022-12-03T12:24:53.972Z,3.97
2022-12-03T12:27:30.907Z,3.97
2022-12-03T12:30:02.807Z,3.97
2022-12-03T12:32:35.368Z,3.97
2022-12-03T12:35:18.009Z,3.97
2022-12-03T12:37:58.939Z,3.97
2022-12-03T12:40:33.622Z,3.98
2022-12-03T12:43:14.139Z,3.99
2022-12-03T12:45:47.028Z,4.01
2022-12-03T12:48:25.369Z,4.04
2022-12-03T12:51:01.543Z,4.04
2022-12-03T12:53:34.362Z,4.04
2022-12-03T12:56:24.244Z,4.05
2022-12-03T12:58:55.790Z,4.05
2022-12-03T13:01:30.670Z,4.07
2022-12-03T13:04:02.961Z,4.08
2022-12-03T13:06:35.553Z,4.10
2022-12-03T13:09:10.539Z,4.08
2022-12-03T13:11:45.747Z,4.07
2022-12-03T13:14:22.672Z,4.05
2022-12-03T13:16:55.661Z,4.03
2022-12-03T13:19:28.035Z,3.97
2022-12-03T13:22:01.799Z,3.92
2022-12-03T13:24:37.015Z,3.90
2022-12-03T13:27:26.692Z,3.87
2022-12-03T13:30:01.445Z,3.85
2022-12-03T13:32:35.222Z,3.84
2022-12-03T13:35:09.228Z,3.83
2022-12-03T13:37:40.956Z,3.82
2022-12-03T13:40:25.172Z,3.83
2022-12-03T13:42:55.672Z,3.83
2022-12-03T13:45:36.037Z,3.80
2022-12-03T13:48:22.912Z,3.77
2022-12-03T13:50:54.619Z,3.75
2022-12-03T13:53:27.826Z,3.71
2022-12-03T13:56:04.441Z,3.69
2022-12-03T13:58:34.851Z,3.64
2022-12-03T14:01:05.388Z,3.59
2022-12-03T14:03:36.066Z,3.56
2022-12-03T14:06:06.819Z,3.55
2022-12-03T14:08:37.269Z,3.53
2022-12-03T14:11:08.005Z,3.53
2022-12-03T14:13:38.383Z,3.52
2022-12-03T14:16:10.328Z,3.52
2022-12-03T14:18:40.848Z,3.50
2022-12-03T14:21:11.209Z,3.48
2022-12-03T14:23:41.593Z,3.48
2022-12-03T14:26:12.104Z,3.47
2022-12-03T14:28:42.439Z,3.47
2022-12-03T14:31:12.951Z,3.43
2022-12-03T14:33:43.401Z,3.40
2022-12-03T14:36:13.906Z,3.37
2022-12-03T14:38:44.347Z,3.35
2022-12-03T14:41:32.997Z,3.33
2022-12-03T14:44:03.415Z,3.30
2022-12-03T14:46:36.626Z,3.27
2022-12-03T14:49:07.040Z,3.25
2022-12-03T14:51:37.425Z,3.22
2022-12-03T14:54:09.146Z,3.21
2022-12-03T14:56:39.729Z,3.20
2022-12-03T14:59:10.115Z,3.18
2022-12-03T15:01:40.830Z,3.15
2022-12-03T15:04:11.586Z,3.12
2022-12-03T15:06:42.007Z,3.10
2022-12-03T15:09:12.761Z,3.09
2022-12-03T15:11:46.360Z,3.07
2022-12-03T15:14:17.444Z,3.05
2022-12-03T15:16:47.759Z,3.04
2022-12-03T15:19:18.281Z,3.02
2022-12-03T15:21:48.789Z,3.02
2022-12-03T15:24:19.396Z,3.02
2022-12-03T15:26:52.270Z,3.01
2022-12-03T15:29:23.101Z,3.00
2022-12-03T15:31:53.501Z,3.00
2022-12-03T15:34:23.917Z,3.00
2022-12-03T15:36:54.294Z,2.98
2022-12-03T15:39:25.836Z,2.96
2022-12-03T15:41:56.092Z,2.95
2022-12-03T15:44:26.536Z,2.94
2022-12-03T15:46:56.955Z,2.94
2022-12-03T15:49:27.412Z,2.93
2022-12-03T15:51:57.821Z,2.93
2022-12-03T15:54:28.313Z,2.94
2022-12-03T15:56:58.928Z,2.94
2022-12-03T15:59:29.707Z,2.94
2022-12-03T16:02:00.221Z,2.93
2022-12-03T16:04:30.645Z,2.92
2022-12-03T16:07:01.216Z,2.91
2022-12-03T16:09:31.722Z,2.92
2022-12-03T16:12:02.658Z,2.92
2022-12-03T16:14:33.394Z,2.91
2022-12-03T16:17:03.768Z,2.90
2022-12-03T16:19:34.861Z,2.90
2022-12-03T16:22:05.409Z,2.90
2022-12-03T16:24:36.037Z,2.89
2022-12-03T16:27:06.786Z,2.88
2022-12-03T16:29:37.584Z,2.88
2022-12-03T16:32:08.413Z,2.88
2022-12-03T16:34:38.820Z,2.87
2022-12-03T16:37:10.420Z,2.87
2022-12-03T16:39:48.090Z,2.86
2022-12-03T16:42:18.493Z,2.86
2022-12-03T16:45:15.413Z,2.87
2022-12-03T16:47:46.269Z,2.88
2022-12-03T16:50:24.481Z,2.88
2022-12-03T16:52:59.569Z,2.88
2022-12-03T16:55:29.983Z,2.88
2022-12-03T16:58:00.496Z,2.87
2022-12-03T17:00:31.052Z,2.86
2022-12-03T17:03:01.488Z,2.86
2022-12-03T17:05:32.008Z,2.85
2022-12-03T17:08:02.664Z,2.84
2022-12-03T17:10:33.460Z,2.84
2022-12-03T17:13:11.340Z,2.84
2022-12-03T17:15:42.493Z,2.83
2022-12-03T17:18:13.040Z,2.82
2022-12-03T17:20:43.568Z,2.80
2022-12-03T17:23:14.026Z,2.79
2022-12-03T17:25:44.509Z,2.80
2022-12-03T17:28:14.972Z,2.78
2022-12-03T17:30:45.954Z,2.77
2022-12-03T17:33:16.406Z,2.77
2022-12-03T17:35:46.897Z,2.76
2022-12-03T17:38:17.191Z,2.75
2022-12-03T17:40:47.580Z,2.76
2022-12-03T17:43:17.945Z,2.75
2022-12-03T17:45:48.406Z,2.75
2022-12-03T17:48:18.832Z,2.74
2022-12-03T17:50:50.132Z,2.74
2022-12-03T17:53:20.554Z,2.74
2022-12-03T17:55:50.889Z,2.73
2022-12-03T17:58:21.573Z,2.72
2022-12-03T18:00:53.258Z,2.71
2022-12-03T18:03:26.877Z,2.70
2022-12-03T18:05:57.396Z,2.70
2022-12-03T18:08:27.712Z,2.69
2022-12-03T18:10:58.113Z,2.68
2022-12-03T18:13:28.936Z,2.68
2022-12-03T18:15:58.506Z,2.65
2022-12-03T18:18:28.906Z,2.63
2022-12-03T18:21:02.027Z,2.62
2022-12-03T18:23:33.063Z,2.63
2022-12-03T18:26:04.797Z,2.63
2022-12-03T18:28:35.331Z,2.62
2022-12-03T18:31:12.681Z,2.62
2022-12-03T18:33:43.383Z,2.62
2022-12-03T18:36:18.912Z,2.61
2022-12-03T18:38:52.141Z,2.61
2022-12-03T18:41:24.024Z,2.59
2022-12-03T18:43:54.580Z,2.54
2022-12-03T18:46:51.636Z,2.52
2022-12-03T18:49:15.441Z,2.51
2022-12-03T18:51:45.933Z,2.51
2022-12-03T18:54:16.766Z,2.51
2022-12-03T18:56:47.436Z,2.51
2022-12-03T18:59:17.903Z,2.51
2022-12-03T19:01:48.422Z,2.51
2022-12-03T19:04:18.893Z,2.49
2022-12-03T19:06:49.361Z,2.49
2022-12-03T19:09:20.077Z,2.49
2022-12-03T19:11:50.582Z,2.49
2022-12-03T19:14:21.066Z,2.49
2022-12-03T19:16:52.198Z,2.47
2022-12-03T19:19:27.149Z,2.45
2022-12-03T19:21:58.121Z,2.44
2022-12-03T19:24:29.110Z,2.43
2022-12-03T19:26:59.853Z,2.43
2022-12-03T19:29:30.282Z,2.40
2022-12-03T19:32:01.052Z,2.39
2022-12-03T19:34:31.942Z,2.39
2022-12-03T19:37:02.479Z,2.39
2022-12-03T19:39:33.241Z,2.39
2022-12-03T19:42:03.805Z,2.40
2022-12-03T19:44:34.238Z,2.39
2022-12-03T19:47:04.819Z,2.37
2022-12-03T19:49:35.480Z,2.37
2022-12-03T19:52:07.404Z,2.36
2022-12-03T19:54:37.850Z,2.34
2022-12-03T19:57:09.606Z,2.32
2022-12-03T19:59:40.194Z,2.31
2022-12-03T20:02:11.906Z,2.29
2022-12-03T20:04:42.958Z,2.27
2022-12-03T20:07:13.968Z,2.25
2022-12-03T20:09:47.337Z,2.23
2022-12-03T20:12:17.968Z,2.21
2022-12-03T20:14:49.852Z,2.18
2022-12-03T20:17:20.630Z,2.17
2022-12-03T20:19:51.425Z,2.16
2022-12-03T20:22:21.927Z,2.15
2022-12-03T20:24:52.422Z,2.14
2022-12-03T20:27:23.310Z,2.13
2022-12-03T20:29:54.198Z,2.13
2022-12-03T20:32:24.904Z,2.13
2022-12-03T20:34:55.527Z,2.13
2022-12-03T20:37:26.132Z,2.13
2022-12-03T20:39:56.762Z,2.13
2022-12-03T20:42:27.498Z,2.13
2022-12-03T20:44:57.972Z,2.11
2022-12-03T20:47:28.444Z,2.09
2022-12-03T20:49:58.839Z,2.05
2022-12-03T20:52:29.324Z,2.02
2022-12-03T20:54:59.734Z,2.00
2022-12-03T20:57:30.259Z,2.00
2022-12-03T21:00:00.750Z,1.99
2022-12-03T21:02:31.305Z,1.99
2022-12-03T21:05:02.015Z,1.98
2022-12-03T21:07:32.720Z,1.96
2022-12-03T21:10:03.495Z,1.96
2022-12-03T21:12:34.093Z,1.96
2022-12-03T21:15:04.701Z,1.96
2022-12-03T21:17:35.924Z,1.94
2022-12-03T21:20:08.402Z,1.95
2022-12-03T21:22:39.351Z,1.95
2022-12-03T21:25:10.379Z,1.93
2022-12-03T21:27:40.852Z,1.91
2022-12-03T21:30:12.651Z,1.90
2022-12-03T21:32:43.258Z,1.89
2022-12-03T21:35:13.830Z,1.87
2022-12-03T21:37:44.688Z,1.85
2022-12-03T21:40:16.078Z,1.82
2022-12-03T21:42:47.095Z,1.82
2022-12-03T21:45:18.093Z,1.82
2022-12-03T21:47:50.293Z,1.80
2022-12-03T21:50:21.264Z,1.78
2022-12-03T21:52:52.876Z,1.76
2022-12-03T21:55:23.424Z,1.73
2022-12-03T21:57:54.067Z,1.73
2022-12-03T22:00:25.261Z,1.73
2022-12-03T22:02:55.782Z,1.73
2022-12-03T22:05:26.248Z,1.71
2022-12-03T22:07:56.896Z,1.70
2022-12-03T22:10:27.444Z,1.69
2022-12-03T22:12:57.847Z,1.69
2022-12-03T22:15:28.431Z,1.67
2022-12-03T22:17:58.997Z,1.66
2022-12-03T22:20:29.759Z,1.66
2022-12-03T22:23:00.242Z,1.67
2022-12-03T22:25:31.610Z,1.66
2022-12-03T22:28:00.554Z,1.66
2022-12-03T22:30:31.022Z,1.66
2022-12-03T22:33:01.537Z,1.66
2022-12-03T22:35:31.963Z,1.65
2022-12-03T22:38:02.559Z,1.65
2022-12-03T22:40:33.011Z,1.64
2022-12-03T22:43:03.568Z,1.64
2022-12-03T22:45:35.751Z,1.62
2022-12-03T22:48:06.756Z,1.60
2022-12-03T22:50:41.602Z,1.59
2022-12-03T22:53:12.480Z,1.58
2022-12-03T22:55:43.386Z,1.57
2022-12-03T22:58:13.908Z,1.56
2022-12-03T23:00:44.379Z,1.57
2022-12-03T23:03:14.861Z,1.58
2022-12-03T23:05:45.542Z,1.58
2022-12-03T23:08:17.779Z,1.59
2022-12-03T23:10:51.163Z,1.59
2022-12-03T23:13:22.117Z,1.59
2022-12-03T23:15:54.265Z,1.58
2022-12-03T23:18:24.957Z,1.55
2022-12-03T23:20:57.296Z,1.54
2022-12-03T23:23:29.716Z,1.52
2022-12-03T23:26:00.887Z,1.51
2022-12-03T23:28:32.916Z,1.51
2022-12-03T23:31:03.901Z,1.51
2022-12-03T23:33:38.414Z,1.50
2022-12-03T23:36:10.532Z,1.49
2022-12-03T23:38:41.305Z,1.49
2022-12-03T23:41:14.041Z,1.49
2022-12-03T23:43:44.644Z,1.49
2022-12-03T23:46:17.021Z,1.49
2022-12-03T23:48:47.441Z,1.48
2022-12-03T23:51:20.184Z,1.47
2022-12-03T23:53:51.232Z,1.48
2022-12-03T23:56:24.707Z,1.49
2022-12-03T23:58:55.268Z,1.46
